METAR Data
IDs: Format: Raw Decoded Include TAF

Data at: 0243 UTC 01 Feb 2023

KOXC 010151Z 01009KT 10SM CLR M04/M11 A3022 RMK AO2 SLP255 T10441106
KOXC 010051Z 35008KT 10SM CLR M04/M10 A3021 RMK AO2 SLP251 T10391100
KOXC 312351Z 36008KT 10SM CLR M03/M09 A3020 RMK AO2 SLP249 T10331094 10011 21039 53011
KOXC 312251Z 01008KT 10SM CLR M02/M09 A3019 RMK AO2 SLP243 T10221094
KOXC 312151Z 01009KT 10SM CLR M01/M08 A3018 RMK AO2 SLP241 T10111083
KOXC 312051Z 33007KT 10SM FEW040 01/M09 A3017 RMK AO2 SLP237 T00061094 53002
KOXC 311951Z 31008G16KT 270V340 10SM SCT039 01/M08 A3016 RMK AO2 SLP234 T00111083
KOXC 311851Z 35010KT 10SM BKN038 01/M07 A3016 RMK AO2 SLP231 T00061067
KOXC 311751Z 34010KT 10SM OVC038 01/M07 A3016 RMK AO2 SLP233 60000 T00061067 10017 21017 58007
KOXC 311651Z 31009KT 10SM BKN037 01/M07 A3018 RMK AO2 SLP237 T00111067
KOXC 311551Z 34013KT 10SM BKN050 01/M06 A3020 RMK AO2 SLP243 T00061056
KOXC 311451Z 32009G16KT 10SM FEW025 OVC060 00/M05 A3019 RMK AO2 SLP241 60000 T00001050 51021
KOXC 311351Z 33007KT 10SM OVC055 M01/M04 A3017 RMK AO2 UPB44E46SNE44 SLP235 P0000 T10111039
KOXC 311251Z 35009KT 2 1/2SM -SN BKN028 OVC046 M01/M04 A3015 RMK AO2 VIS 2V4 SLP228 P0000 T10111039
KOXC 311248Z 33011KT 2 1/2SM -SN BKN028 OVC046 M01/M04 A3015 RMK AO2 VIS 1 3/4V4 P0000
KOXC 311151Z 35013KT 7SM -SN OVC046 M01/M03 A3012 RMK AO2 SLP218 P0000 60000 T10111033 10033 21011 53014
KOXC 311051Z AUTO 36009KT 4SM -SN BR FEW024 BKN030 OVC041 M01/M03 A3011 RMK AO2 SLP214 P0000 T10111028 FZRANO
KOXC 310951Z AUTO 34012KT 9SM -SN OVC032 M01/M03 A3009 RMK AO2 UPB10E39SNB39 SLP208 P0000 T10061028 FZRANO
KOXC 310937Z AUTO 36014KT 10SM UP FEW023 OVC030 M01/M02 A3008 RMK AO2 UPB10 P0000 FZRANO
KOXC 310851Z AUTO 34010KT 10SM OVC019 00/M02 A3008 RMK AO2 SLP204 60000 T00001022 53009 FZRANO
KOXC 310751Z AUTO 33009KT 10SM FEW010 OVC015 01/M02 A3009 RMK AO2 SLP206 T00061017 FZRANO
KOXC 310742Z AUTO 34009KT 10SM SCT008 OVC015 01/M02 A3007 RMK AO2 FZRANO
KOXC 310714Z AUTO 34007KT 10SM BKN008 OVC013 01/00 A3007 RMK AO2 FZRANO
KOXC 310651Z AUTO 36006KT 10SM FEW008 OVC015 02/00 A3005 RMK AO2 RAB00E43UPB19E30 SLP192 P0000 T00170000 FZRANO
KOXC 310628Z AUTO 33007KT 9SM UP FEW008 SCT014 OVC021 02/01 A3006 RMK AO2 RAB00E19UPB19 P0000 FZRANO
KOXC 310615Z AUTO 34007KT 10SM -RA FEW018 BKN023 OVC065 03/02 A3006 RMK AO2 RAB00 P0000
KOXC 310559Z AUTO 35005KT 10SM FEW025 BKN030 OVC065 03/02 A3005 RMK AO2
KOXC 310551Z AUTO 33007KT 10SM BKN028 BKN065 OVC090 03/02 A3005 RMK AO2 RAB18E30 SLP193 P0000 60000 T00330022 10067 20033 58001
KOXC 310451Z AUTO 31004KT 10SM OVC028 04/03 A3006 RMK AO2 SLP195 T00440028 401060000
KOXC 310441Z AUTO 00000KT 9SM BKN028 BKN034 OVC095 04/02 A3006 RMK AO2
KOXC 310351Z AUTO 00000KT 8SM FEW060 SCT095 04/03 A3005 RMK AO2 SLP195 T00440028
KOXC 310251Z AUTO 23003KT 10SM CLR 04/02 A3006 RMK AO2 SLP196 T00440022 58001
KOXC 310151Z 21005KT 10SM SCT075 05/02 A3005 RMK AO2 SLP194 T00500022
KOXC 310051Z 19007KT 10SM SCT085 05/02 A3006 RMK AO2 SLP197 T00500022
KOXC 302351Z 20004KT 10SM CLR 07/02 A3006 RMK AO2 SLP195 T00670017 10106 20067 58003
KOXC 302251Z 19005KT 10SM CLR 07/02 A3007 RMK AO2 SLP200 T00720022
KOXC 302151Z 19004KT 10SM CLR 09/02 A3006 RMK AO2 SLP197 T00890022
KOXC 302051Z 21004KT 10SM SCT037 10/02 A3007 RMK AO2 SLP198 T01000022 56018
KOXC 301951Z 24003KT 10SM SCT035 09/02 A3007 RMK AO2 SLP200 T00940022
KOXC 301851Z VRB05KT 10SM CLR 09/02 A3008 RMK AO2 SLP203 T00890022
KOXC 301751Z VRB06KT 10SM BKN075 08/02 A3012 RMK AO2 SLP217 T00830022 10089 20006 58020
KOXC 301651Z 22004KT 10SM BKN070 08/02 A3015 RMK AO2 SLP225 T00780017
KOXC 301551Z 00000KT 10SM CLR 07/02 A3018 RMK AO2 SLP236 T00670017
KOXC 301451Z 00000KT 10SM CLR 04/02 A3018 RMK AO2 SLP238 T00390022 53007